sensor_id;sensor_type;location;lat;lon;timestamp;pressure;altitude;pressure_sealevel;temperature;humidity
41513;BME280;27244;59.940;30.280;2023-03-23T00:01:00;99720.19;;;23.55;29.73
41513;BME280;27244;59.940;30.280;2023-03-23T00:03:27;99708.16;;;23.54;29.67
41513;BME280;27244;59.940;30.280;2023-03-23T00:05:57;99717.84;;;23.53;29.65
41513;BME280;27244;59.940;30.280;2023-03-23T00:08:32;99708.44;;;23.56;29.58
41513;BME280;27244;59.940;30.280;2023-03-23T00:10:59;99706.56;;;23.53;29.83
41513;BME280;27244;59.940;30.280;2023-03-23T00:13:28;99705.00;;;23.52;29.60
41513;BME280;27244;59.940;30.280;2023-03-23T00:15:55;99702.81;;;23.47;29.93
41513;BME280;27244;59.940;30.280;2023-03-23T00:18:24;99697.03;;;23.50;29.69
41513;BME280;27244;59.940;30.280;2023-03-23T00:20:52;99695.47;;;23.49;29.71
41513;BME280;27244;59.940;30.280;2023-03-23T00:23:21;99696.25;;;23.50;29.71
41513;BME280;27244;59.940;30.280;2023-03-23T00:25:51;99687.81;;;23.50;29.75
41513;BME280;27244;59.940;30.280;2023-03-23T00:28:23;99681.09;;;23.47;29.65
41513;BME280;27244;59.940;30.280;2023-03-23T00:30:57;99690.47;;;23.53;29.67
41513;BME280;27244;59.940;30.280;2023-03-23T00:33:26;99681.84;;;23.48;29.74
41513;BME280;27244;59.940;30.280;2023-03-23T00:35:53;99669.03;;;23.47;29.62
41513;BME280;27244;59.940;30.280;2023-03-23T00:38:21;99671.84;;;23.47;29.62
41513;BME280;27244;59.940;30.280;2023-03-23T00:40:50;99672.16;;;23.49;29.74
41513;BME280;27244;59.940;30.280;2023-03-23T00:43:18;99668.56;;;23.48;29.73
41513;BME280;27244;59.940;30.280;2023-03-23T00:45:46;99667.00;;;23.47;29.90
41513;BME280;27244;59.940;30.280;2023-03-23T00:48:18;99659.31;;;23.48;29.67
41513;BME280;27244;59.940;30.280;2023-03-23T00:50:45;99656.22;;;23.46;29.81
41513;BME280;27244;59.940;30.280;2023-03-23T00:53:12;99639.59;;;23.39;29.99
41513;BME280;27244;59.940;30.280;2023-03-23T00:55:40;99646.03;;;23.39;30.25
41513;BME280;27244;59.940;30.280;2023-03-23T00:58:09;99644.66;;;23.44;29.91
41513;BME280;27244;59.940;30.280;2023-03-23T01:00:37;99651.53;;;23.43;30.01
41513;BME280;27244;59.940;30.280;2023-03-23T01:03:04;99635.09;;;23.41;29.84
41513;BME280;27244;59.940;30.280;2023-03-23T01:05:34;99634.63;;;23.43;29.76
41513;BME280;27244;59.940;30.280;2023-03-23T01:08:02;99634.78;;;23.39;29.94
41513;BME280;27244;59.940;30.280;2023-03-23T01:10:30;99632.41;;;23.38;30.10
41513;BME280;27244;59.940;30.280;2023-03-23T01:12:58;99626.78;;;23.38;30.03
41513;BME280;27244;59.940;30.280;2023-03-23T01:15:28;99588.94;;;23.39;30.04
41513;BME280;27244;59.940;30.280;2023-03-23T01:17:56;99575.03;;;23.26;29.98
41513;BME280;27244;59.940;30.280;2023-03-23T01:20:24;99592.72;;;23.36;29.95
41513;BME280;27244;59.940;30.280;2023-03-23T01:22:54;99589.91;;;23.36;29.89
41513;BME280;27244;59.940;30.280;2023-03-23T01:25:27;99589.91;;;23.36;30.03
41513;BME280;27244;59.940;30.280;2023-03-23T01:27:54;99587.09;;;23.36;30.14
41513;BME280;27244;59.940;30.280;2023-03-23T01:30:22;99589.09;;;23.35;30.01
41513;BME280;27244;59.940;30.280;2023-03-23T01:32:51;99582.53;;;23.38;29.88
41513;BME280;27244;59.940;30.280;2023-03-23T01:35:18;99569.88;;;23.34;29.94
41513;BME280;27244;59.940;30.280;2023-03-23T01:37:46;99578.00;;;23.32;30.21
41513;BME280;27244;59.940;30.280;2023-03-23T01:40:14;99576.28;;;23.34;29.94
41513;BME280;27244;59.940;30.280;2023-03-23T01:42:46;99572.22;;;23.35;29.94
41513;BME280;27244;59.940;30.280;2023-03-23T01:45:21;99570.22;;;23.54;29.74
41513;BME280;27244;59.940;30.280;2023-03-23T01:47:54;99562.38;;;23.40;29.92
41513;BME280;27244;59.940;30.280;2023-03-23T01:50:24;99575.34;;;23.37;29.90
41513;BME280;27244;59.940;30.280;2023-03-23T01:52:53;99553.00;;;23.34;29.93
41513;BME280;27244;59.940;30.280;2023-03-23T01:55:25;99555.81;;;23.34;29.99
41513;BME280;27244;59.940;30.280;2023-03-23T01:57:54;99552.19;;;23.33;30.01
41513;BME280;27244;59.940;30.280;2023-03-23T02:00:21;99538.63;;;23.32;30.18
41513;BME280;27244;59.940;30.280;2023-03-23T02:02:54;99540.94;;;23.33;30.14
41513;BME280;27244;59.940;30.280;2023-03-23T02:05:27;99520.03;;;23.25;30.11
41513;BME280;27244;59.940;30.280;2023-03-23T02:08:00;99534.84;;;23.35;30.07
41513;BME280;27244;59.940;30.280;2023-03-23T02:10:33;99524.56;;;23.32;30.08
41513;BME280;27244;59.940;30.280;2023-03-23T02:13:03;99531.25;;;23.34;30.12
41513;BME280;27244;59.940;30.280;2023-03-23T02:15:37;99521.56;;;23.35;29.92
41513;BME280;27244;59.940;30.280;2023-03-23T02:18:15;99515.47;;;23.37;29.98
41513;BME280;27244;59.940;30.280;2023-03-23T02:21:01;99509.06;;;23.36;29.93
41513;BME280;27244;59.940;30.280;2023-03-23T02:23:52;99511.41;;;23.38;29.90
41513;BME280;27244;59.940;30.280;2023-03-23T02:26:34;99494.84;;;23.31;30.47
41513;BME280;27244;59.940;30.280;2023-03-23T02:29:36;99498.44;;;23.40;29.99
41513;BME280;27244;59.940;30.280;2023-03-23T02:32:16;99498.28;;;23.35;30.16
41513;BME280;27244;59.940;30.280;2023-03-23T02:34:51;99492.34;;;23.33;30.20
41513;BME280;27244;59.940;30.280;2023-03-23T02:37:24;99482.34;;;23.32;30.34
41513;BME280;27244;59.940;30.280;2023-03-23T02:39:57;99492.34;;;23.33;30.34
41513;BME280;27244;59.940;30.280;2023-03-23T02:42:25;99470.00;;;23.47;29.99
41513;BME280;27244;59.940;30.280;2023-03-23T02:44:53;99473.56;;;23.30;30.26
41513;BME280;27244;59.940;30.280;2023-03-23T02:47:23;99469.53;;;23.31;30.20
41513;BME280;27244;59.940;30.280;2023-03-23T02:49:55;99459.03;;;23.31;30.15
41513;BME280;27244;59.940;30.280;2023-03-23T02:52:27;99459.22;;;23.28;30.40
41513;BME280;27244;59.940;30.280;2023-03-23T02:54:56;99449.69;;;23.25;30.57
41513;BME280;27244;59.940;30.280;2023-03-23T02:57:27;99449.97;;;23.27;30.13
41513;BME280;27244;59.940;30.280;2023-03-23T02:59:56;99441.53;;;23.27;30.24
41513;BME280;27244;59.940;30.280;2023-03-23T03:02:25;99441.53;;;23.27;30.08
41513;BME280;27244;59.940;30.280;2023-03-23T03:05:00;99440.59;;;23.30;30.07
41513;BME280;27244;59.940;30.280;2023-03-23T03:07:56;99444.53;;;23.33;30.22
41513;BME280;27244;59.940;30.280;2023-03-23T03:10:28;99429.03;;;23.28;30.12
41513;BME280;27244;59.940;30.280;2023-03-23T03:13:04;99437.00;;;23.30;30.22
41513;BME280;27244;59.940;30.280;2023-03-23T03:15:36;99419.19;;;23.24;30.13
41513;BME280;27244;59.940;30.280;2023-03-23T03:18:09;99424.66;;;23.27;30.16
41513;BME280;27244;59.940;30.280;2023-03-23T03:20:43;99414.19;;;23.28;30.52
41513;BME280;27244;59.940;30.280;2023-03-23T03:23:12;99410.75;;;23.24;30.13
41513;BME280;27244;59.940;30.280;2023-03-23T03:25:43;99409.50;;;23.25;30.07
41513;BME280;27244;59.940;30.280;2023-03-23T03:28:18;99408.72;;;23.24;30.16
41513;BME280;27244;59.940;30.280;2023-03-23T03:30:53;99404.19;;;23.27;30.11
41513;BME280;27244;59.940;30.280;2023-03-23T03:33:23;99398.25;;;23.25;30.14
41513;BME280;27244;59.940;30.280;2023-03-23T03:35:55;99394.97;;;23.26;30.15
41513;BME280;27244;59.940;30.280;2023-03-23T03:38:23;99387.00;;;23.25;30.20
41513;BME280;27244;59.940;30.280;2023-03-23T03:40:52;99385.44;;;23.24;30.12
41513;BME280;27244;59.940;30.280;2023-03-23T03:43:19;99381.38;;;23.25;30.17
41513;BME280;27244;59.940;30.280;2023-03-23T03:45:47;99381.84;;;23.23;30.24
41513;BME280;27244;59.940;30.280;2023-03-23T03:48:13;99373.56;;;23.20;30.29
41513;BME280;27244;59.940;30.280;2023-03-23T03:50:40;99375.94;;;23.21;30.25
41513;BME280;27244;59.940;30.280;2023-03-23T03:53:09;99370.91;;;23.25;30.14
41513;BME280;27244;59.940;30.280;2023-03-23T03:55:37;99379.03;;;23.23;30.09
41513;BME280;27244;59.940;30.280;2023-03-23T03:58:08;99373.38;;;23.41;30.05
41513;BME280;27244;59.940;30.280;2023-03-23T04:00:59;99372.44;;;23.26;30.14
41513;BME280;27244;59.940;30.280;2023-03-23T04:03:31;99361.38;;;23.23;30.21
41513;BME280;27244;59.940;30.280;2023-03-23T04:06:05;99352.94;;;23.23;30.21
41513;BME280;27244;59.940;30.280;2023-03-23T04:08:35;99355.75;;;23.23;30.22
41513;BME280;27244;59.940;30.280;2023-03-23T04:11:03;99349.81;;;23.21;30.20
41513;BME280;27244;59.940;30.280;2023-03-23T04:13:32;99345.44;;;23.20;30.18
41513;BME280;27244;59.940;30.280;2023-03-23T04:16:15;99357.97;;;23.19;30.38
41513;BME280;27244;59.940;30.280;2023-03-23T04:18:44;99342.97;;;23.13;30.31
41513;BME280;27244;59.940;30.280;2023-03-23T04:21:14;99351.41;;;23.13;30.15
41513;BME280;27244;59.940;30.280;2023-03-23T04:23:44;99346.22;;;23.20;30.39
41513;BME280;27244;59.940;30.280;2023-03-23T04:26:13;99346.72;;;23.19;30.39
41513;BME280;27244;59.940;30.280;2023-03-23T04:28:46;99341.84;;;23.19;30.32
41513;BME280;27244;59.940;30.280;2023-03-23T04:31:33;99350.28;;;23.19;30.21
41513;BME280;27244;59.940;30.280;2023-03-23T04:34:21;99341.84;;;23.19;30.33
41513;BME280;27244;59.940;30.280;2023-03-23T04:36:51;99324.97;;;23.19;30.26
41513;BME280;27244;59.940;30.280;2023-03-23T04:39:24;99337.78;;;23.20;30.29
41513;BME280;27244;59.940;30.280;2023-03-23T04:41:56;99343.41;;;23.20;30.29
41513;BME280;27244;59.940;30.280;2023-03-23T04:44:45;99336.53;;;23.21;30.23
41513;BME280;27244;59.940;30.280;2023-03-23T04:47:19;99330.13;;;23.21;30.33
41513;BME280;27244;59.940;30.280;2023-03-23T04:49:53;99332.94;;;23.21;30.39
41513;BME280;27244;59.940;30.280;2023-03-23T04:52:29;99304.84;;;23.12;30.38
41513;BME280;27244;59.940;30.280;2023-03-23T04:54:59;99317.31;;;23.20;30.49
41513;BME280;27244;59.940;30.280;2023-03-23T04:57:27;99321.22;;;23.22;30.53
41513;BME280;27244;59.940;30.280;2023-03-23T05:00:26;99319.66;;;23.21;30.43
41513;BME280;27244;59.940;30.280;2023-03-23T05:02:55;99321.84;;;23.17;30.60
41513;BME280;27244;59.940;30.280;2023-03-23T05:05:26;99331.69;;;23.22;30.50
41513;BME280;27244;59.940;30.280;2023-03-23T05:07:56;99317.31;;;23.20;30.55
41513;BME280;27244;59.940;30.280;2023-03-23T05:10:28;99330.91;;;23.21;30.77
41513;BME280;27244;59.940;30.280;2023-03-23T05:13:02;99342.34;;;23.18;30.53
41513;BME280;27244;59.940;30.280;2023-03-23T05:15:29;99351.06;;;23.20;30.65
41513;BME280;27244;59.940;30.280;2023-03-23T05:17:57;99340.59;;;23.20;30.77
41513;BME280;27244;59.940;30.280;2023-03-23T05:20:24;99340.59;;;23.20;30.64
41513;BME280;27244;59.940;30.280;2023-03-23T05:22:58;99329.06;;;23.18;30.66
41513;BME280;27244;59.940;30.280;2023-03-23T05:25:34;99328.09;;;23.21;30.67
41513;BME280;27244;59.940;30.280;2023-03-23T05:28:10;99332.31;;;23.17;30.71
41513;BME280;27244;59.940;30.280;2023-03-23T05:30:41;99329.34;;;23.20;30.73
41513;BME280;27244;59.940;30.280;2023-03-23T05:33:12;99324.97;;;23.19;30.83
41513;BME280;27244;59.940;30.280;2023-03-23T05:35:48;99327.78;;;23.19;30.77
41513;BME280;27244;59.940;30.280;2023-03-23T05:38:19;99319.66;;;23.21;30.77
41513;BME280;27244;59.940;30.280;2023-03-23T05:40:49;99328.09;;;23.21;30.75
41513;BME280;27244;59.940;30.280;2023-03-23T05:43:24;99334.19;;;23.20;30.78
41513;BME280;27244;59.940;30.280;2023-03-23T05:46:10;99334.00;;;23.23;30.55
41513;BME280;27244;59.940;30.280;2023-03-23T05:48:38;99341.38;;;23.21;30.78
41513;BME280;27244;59.940;30.280;2023-03-23T05:51:10;99341.38;;;23.21;30.75
41513;BME280;27244;59.940;30.280;2023-03-23T05:53:41;99348.56;;;23.22;30.86
41513;BME280;27244;59.940;30.280;2023-03-23T05:56:11;99355.75;;;23.23;30.92
41513;BME280;27244;59.940;30.280;2023-03-23T05:59:02;99361.06;;;23.21;30.89
41513;BME280;27244;59.940;30.280;2023-03-23T06:01:32;99349.53;;;23.19;30.90
41513;BME280;27244;59.940;30.280;2023-03-23T06:03:59;99363.88;;;23.21;30.96
41513;BME280;27244;59.940;30.280;2023-03-23T06:06:47;99355.44;;;23.21;30.89
41513;BME280;27244;59.940;30.280;2023-03-23T06:09:14;99363.88;;;23.21;30.91
41513;BME280;27244;59.940;30.280;2023-03-23T06:12:03;99380.59;;;23.24;32.89
41513;BME280;27244;59.940;30.280;2023-03-23T06:14:53;99393.41;;;23.25;32.68
41513;BME280;27244;59.940;30.280;2023-03-23T06:17:27;99383.53;;;23.30;31.67
41513;BME280;27244;59.940;30.280;2023-03-23T06:19:54;99399.31;;;23.36;31.35
41513;BME280;27244;59.940;30.280;2023-03-23T06:22:21;99386.78;;;23.37;31.14
41513;BME280;27244;59.940;30.280;2023-03-23T06:25:18;99395.06;;;23.41;30.99
41513;BME280;27244;59.940;30.280;2023-03-23T06:27:46;99387.91;;;23.40;31.03
41513;BME280;27244;59.940;30.280;2023-03-23T06:30:14;99388.06;;;23.36;30.83
41513;BME280;27244;59.940;30.280;2023-03-23T06:32:42;99395.06;;;23.41;30.94
41513;BME280;27244;59.940;30.280;2023-03-23T06:35:12;99396.50;;;23.45;30.73
41513;BME280;27244;59.940;30.280;2023-03-23T06:37:54;99404.94;;;23.45;30.70
41513;BME280;27244;59.940;30.280;2023-03-23T06:40:37;99397.44;;;23.42;30.80
41513;BME280;27244;59.940;30.280;2023-03-23T06:43:06;99396.50;;;23.45;30.59
41513;BME280;27244;59.940;30.280;2023-03-23T06:45:51;99405.09;;;23.51;30.57
41513;BME280;27244;59.940;30.280;2023-03-23T06:48:44;99403.19;;;23.48;30.46
41513;BME280;27244;59.940;30.280;2023-03-23T06:51:16;99406.63;;;23.52;30.47
41513;BME280;27244;59.940;30.280;2023-03-23T06:53:48;99417.09;;;23.51;30.58
41513;BME280;27244;59.940;30.280;2023-03-23T06:56:15;99431.97;;;23.52;30.63
41513;BME280;27244;59.940;30.280;2023-03-23T06:58:46;99421.66;;;23.49;30.53
41513;BME280;27244;59.940;30.280;2023-03-23T07:01:14;99423.53;;;23.52;30.44
41513;BME280;27244;59.940;30.280;2023-03-23T07:03:49;99433.25;;;23.51;30.41
41513;BME280;27244;59.940;30.280;2023-03-23T07:06:24;99434.59;;;23.56;30.35
41513;BME280;27244;59.940;30.280;2023-03-23T07:08:57;99430.72;;;23.53;30.38
41513;BME280;27244;59.940;30.280;2023-03-23T07:11:27;99444.31;;;23.55;30.45
41513;BME280;27244;59.940;30.280;2023-03-23T07:13:58;99443.53;;;23.54;30.44
41513;BME280;27244;59.940;30.280;2023-03-23T07:16:24;99440.41;;;23.52;30.50
41513;BME280;27244;59.940;30.280;2023-03-23T07:18:52;99447.59;;;23.53;30.52
41513;BME280;27244;59.940;30.280;2023-03-23T07:21:19;99449.97;;;23.55;30.45
41513;BME280;27244;59.940;30.280;2023-03-23T07:23:47;99454.81;;;23.54;30.37
41513;BME280;27244;59.940;30.280;2023-03-23T07:26:26;99452.28;;;23.56;30.47
41513;BME280;27244;59.940;30.280;2023-03-23T07:28:55;99455.09;;;23.56;30.43
41513;BME280;27244;59.940;30.280;2023-03-23T07:31:29;99458.88;;;23.53;30.77
41513;BME280;27244;59.940;30.280;2023-03-23T07:33:56;99455.13;;;23.47;31.41
41513;BME280;27244;59.940;30.280;2023-03-23T07:36:31;99461.72;;;23.44;31.58
41513;BME280;27244;59.940;30.280;2023-03-23T07:38:58;99464.66;;;23.40;31.56
41513;BME280;27244;59.940;30.280;2023-03-23T07:41:26;99467.94;;;23.39;31.82
41513;BME280;27244;59.940;30.280;2023-03-23T07:43:55;99457.78;;;23.41;31.86
41513;BME280;27244;59.940;30.280;2023-03-23T07:46:31;99458.25;;;23.40;31.76
41513;BME280;27244;59.940;30.280;2023-03-23T07:49:19;99453.25;;;23.35;31.95
41513;BME280;27244;59.940;30.280;2023-03-23T07:51:59;99458.25;;;23.40;32.03
41513;BME280;27244;59.940;30.280;2023-03-23T07:54:28;99465.13;;;23.39;31.89
41513;BME280;27244;59.940;30.280;2023-03-23T07:57:04;99459.19;;;23.37;32.26
41513;BME280;27244;59.940;30.280;2023-03-23T07:59:36;99472.00;;;23.38;32.30
41513;BME280;27244;59.940;30.280;2023-03-23T08:02:04;99478.41;;;23.38;32.35
41513;BME280;27244;59.940;30.280;2023-03-23T08:04:39;99462.78;;;23.37;32.25
41513;BME280;27244;59.940;30.280;2023-03-23T08:07:28;99469.69;;;23.36;32.27
41513;BME280;27244;59.940;30.280;2023-03-23T08:10:22;99471.22;;;23.37;32.29
41513;BME280;27244;59.940;30.280;2023-03-23T08:13:00;99469.69;;;23.36;32.68
41513;BME280;27244;59.940;30.280;2023-03-23T08:15:51;99464.50;;;23.35;32.65
41513;BME280;27244;59.940;30.280;2023-03-23T08:18:25;99459.97;;;23.37;32.46
41513;BME280;27244;59.940;30.280;2023-03-23T08:21:22;99463.88;;;23.31;32.73
41513;BME280;27244;59.940;30.280;2023-03-23T08:24:08;99466.06;;;23.36;32.70
41513;BME280;27244;59.940;30.280;2023-03-23T08:26:50;99470.13;;;23.35;32.62
41513;BME280;27244;59.940;30.280;2023-03-23T08:29:44;99469.19;;;23.38;33.29
41513;BME280;27244;59.940;30.280;2023-03-23T08:32:30;99467.16;;;23.38;33.40
41513;BME280;27244;59.940;30.280;2023-03-23T08:35:16;99461.53;;;23.38;33.41
41513;BME280;27244;59.940;30.280;2023-03-23T08:38:03;99461.53;;;23.38;33.48
41513;BME280;27244;59.940;30.280;2023-03-23T08:40:46;99465.91;;;23.39;33.16
41513;BME280;27244;59.940;30.280;2023-03-23T08:43:49;99459.97;;;23.37;33.03
41513;BME280;27244;59.940;30.280;2023-03-23T08:46:29;99454.03;;;23.35;33.10
41513;BME280;27244;59.940;30.280;2023-03-23T08:49:05;99450.16;;;23.33;32.83
41513;BME280;27244;59.940;30.280;2023-03-23T08:51:34;99447.16;;;23.36;32.82
41513;BME280;27244;59.940;30.280;2023-03-23T08:54:29;99464.34;;;23.38;33.01
41513;BME280;27244;59.940;30.280;2023-03-23T08:57:24;99464.81;;;23.37;32.71
41513;BME280;27244;59.940;30.280;2023-03-23T09:00:13;99460.44;;;23.36;32.65
41513;BME280;27244;59.940;30.280;2023-03-23T09:03:02;99461.25;;;23.36;32.85
41513;BME280;27244;59.940;30.280;2023-03-23T09:05:58;99469.97;;;23.38;32.79
41513;BME280;27244;59.940;30.280;2023-03-23T09:08:36;99464.22;;;23.33;32.76
41513;BME280;27244;59.940;30.280;2023-03-23T09:11:05;99473.72;;;23.35;32.64
41513;BME280;27244;59.940;30.280;2023-03-23T09:13:34;99466.88;;;23.36;32.82
41513;BME280;27244;59.940;30.280;2023-03-23T09:16:01;99470.13;;;23.35;32.83
41513;BME280;27244;59.940;30.280;2023-03-23T09:18:29;99458.88;;;23.35;32.63
41513;BME280;27244;59.940;30.280;2023-03-23T09:20:56;99459.97;;;23.37;32.77
41513;BME280;27244;59.940;30.280;2023-03-23T09:23:23;99449.19;;;23.36;32.59
41513;BME280;27244;59.940;30.280;2023-03-23T09:25:52;99460.75;;;23.38;32.51
41513;BME280;27244;59.940;30.280;2023-03-23T09:28:20;99455.91;;;23.38;32.65
41513;BME280;27244;59.940;30.280;2023-03-23T09:30:47;99456.22;;;23.40;32.73
41513;BME280;27244;59.940;30.280;2023-03-23T09:33:15;99453.09;;;23.38;32.60
41513;BME280;27244;59.940;30.280;2023-03-23T09:35:42;99452.63;;;23.40;32.76
41513;BME280;27244;59.940;30.280;2023-03-23T09:38:10;99448.53;;;23.41;32.62
41513;BME280;27244;59.940;30.280;2023-03-23T09:40:43;99450.91;;;23.42;32.52
41513;BME280;27244;59.940;30.280;2023-03-23T09:43:27;99449.50;;;23.47;32.61
41513;BME280;27244;59.940;30.280;2023-03-23T09:45:58;99449.78;;;23.58;32.22
41513;BME280;27244;59.940;30.280;2023-03-23T09:48:34;99436.97;;;23.48;32.51
41513;BME280;27244;59.940;30.280;2023-03-23T09:51:11;99441.38;;;23.40;32.44
41513;BME280;27244;59.940;30.280;2023-03-23T09:53:45;99449.69;;;23.43;32.75
41513;BME280;27244;59.940;30.280;2023-03-23T09:56:15;99438.22;;;23.38;32.70
41513;BME280;27244;59.940;30.280;2023-03-23T09:58:51;99445.72;;;23.41;32.57
41513;BME280;27244;59.940;30.280;2023-03-23T10:01:22;99448.91;;;23.43;32.67
41513;BME280;27244;59.940;30.280;2023-03-23T10:03:55;99444.03;;;23.43;32.84
41513;BME280;27244;59.940;30.280;2023-03-23T10:06:27;99419.66;;;23.31;32.80
41513;BME280;27244;59.940;30.280;2023-03-23T10:08:57;99440.91;;;23.41;32.81
41513;BME280;27244;59.940;30.280;2023-03-23T10:11:31;99436.84;;;23.42;32.70
41513;BME280;27244;59.940;30.280;2023-03-23T10:14:25;99437.94;;;23.45;32.49
41513;BME280;27244;59.940;30.280;2023-03-23T10:17:00;99447.31;;;23.42;32.62
41513;BME280;27244;59.940;30.280;2023-03-23T10:19:34;99444.19;;;23.40;32.67
41513;BME280;27244;59.940;30.280;2023-03-23T10:22:04;99455.31;;;23.43;32.66
41513;BME280;27244;59.940;30.280;2023-03-23T10:24:36;99451.22;;;23.44;32.69
41513;BME280;27244;59.940;30.280;2023-03-23T10:27:13;99438.41;;;23.43;32.73
41513;BME280;27244;59.940;30.280;2023-03-23T10:29:48;99439.22;;;23.44;32.68
41513;BME280;27244;59.940;30.280;2023-03-23T10:32:22;99437.94;;;23.45;32.90
41513;BME280;27244;59.940;30.280;2023-03-23T10:34:52;99433.56;;;23.44;32.59
41513;BME280;27244;59.940;30.280;2023-03-23T10:37:22;99428.84;;;23.41;32.75
41513;BME280;27244;59.940;30.280;2023-03-23T10:39:53;99436.38;;;23.44;32.71
41513;BME280;27244;59.940;30.280;2023-03-23T10:42:22;99429.19;;;23.43;32.76
41513;BME280;27244;59.940;30.280;2023-03-23T10:44:52;99440.75;;;23.45;32.73
41513;BME280;27244;59.940;30.280;2023-03-23T10:47:20;99437.63;;;23.43;33.00
41513;BME280;27244;59.940;30.280;2023-03-23T10:49:50;99452.31;;;23.47;32.85
41513;BME280;27244;59.940;30.280;2023-03-23T10:52:27;99447.00;;;23.49;32.72
41513;BME280;27244;59.940;30.280;2023-03-23T10:54:58;99449.97;;;23.45;32.71
41513;BME280;27244;59.940;30.280;2023-03-23T10:57:27;99441.69;;;23.42;32.91
41513;BME280;27244;59.940;30.280;2023-03-23T11:00:01;99445.41;;;23.48;32.76
41513;BME280;27244;59.940;30.280;2023-03-23T11:02:37;99446.69;;;23.47;32.67
41513;BME280;27244;59.940;30.280;2023-03-23T11:05:16;99429.34;;;23.39;32.67
41513;BME280;27244;59.940;30.280;2023-03-23T11:07:49;99443.88;;;23.47;32.72
41513;BME280;27244;59.940;30.280;2023-03-23T11:10:21;99437.16;;;23.44;32.80
41513;BME280;27244;59.940;30.280;2023-03-23T11:12:50;99442.91;;;23.41;33.47
41513;BME280;27244;59.940;30.280;2023-03-23T11:15:32;99437.47;;;23.46;33.21
41513;BME280;27244;59.940;30.280;2023-03-23T11:18:00;99439.78;;;23.57;32.70
41513;BME280;27244;59.940;30.280;2023-03-23T11:20:29;99440.25;;;23.37;34.79
41513;BME280;27244;59.940;30.280;2023-03-23T11:23:08;99445.72;;;23.41;34.10
41513;BME280;27244;59.940;30.280;2023-03-23T11:25:50;99441.38;;;23.40;34.57
41513;BME280;27244;59.940;30.280;2023-03-23T11:28:19;99445.75;;;23.32;36.21
41513;BME280;27244;59.940;30.280;2023-03-23T11:30:47;99432.94;;;23.31;36.70
41513;BME280;27244;59.940;30.280;2023-03-23T11:33:14;99447.34;;;23.33;36.94
41513;BME280;27244;59.940;30.280;2023-03-23T11:35:44;99437.63;;;23.34;37.21
41513;BME280;27244;59.940;30.280;2023-03-23T11:38:18;99442.78;;;23.35;37.27
41513;BME280;27244;59.940;30.280;2023-03-23T11:40:48;99450.16;;;23.33;37.39
41513;BME280;27244;59.940;30.280;2023-03-23T11:43:19;99442.94;;;23.32;36.95
41513;BME280;27244;59.940;30.280;2023-03-23T11:45:50;99442.44;;;23.51;35.74
41513;BME280;27244;59.940;30.280;2023-03-23T11:48:25;99441.03;;;23.38;37.43
41513;BME280;27244;59.940;30.280;2023-03-23T11:50:55;99434.00;;;23.33;37.73
41513;BME280;27244;59.940;30.280;2023-03-23T11:53:34;99425.91;;;23.35;37.52
41513;BME280;27244;59.940;30.280;2023-03-23T11:56:13;99428.22;;;23.37;37.11
41513;BME280;27244;59.940;30.280;2023-03-23T11:58:42;99429.34;;;23.30;36.55
41513;BME280;27244;59.940;30.280;2023-03-23T12:01:19;99417.47;;;23.35;36.01
41513;BME280;27244;59.940;30.280;2023-03-23T12:04:03;99423.88;;;23.36;35.64
41513;BME280;27244;59.940;30.280;2023-03-23T12:06:37;99434.34;;;23.35;36.91
41513;BME280;27244;59.940;30.280;2023-03-23T12:09:19;99416.22;;;23.36;36.32
41513;BME280;27244;59.940;30.280;2023-03-23T12:11:56;99425.41;;;23.37;36.28
41513;BME280;27244;59.940;30.280;2023-03-23T12:14:32;99428.22;;;23.37;36.29
41513;BME280;27244;59.940;30.280;2023-03-23T12:17:13;99429.00;;;23.37;35.93
41513;BME280;27244;59.940;30.280;2023-03-23T12:19:45;99426.53;;;23.39;35.26
41513;BME280;27244;59.940;30.280;2023-03-23T12:22:29;99426.84;;;23.41;35.35
41513;BME280;27244;59.940;30.280;2023-03-23T12:25:14;99433.25;;;23.42;35.15
41513;BME280;27244;59.940;30.280;2023-03-23T12:27:47;99434.47;;;23.41;34.97
41513;BME280;27244;59.940;30.280;2023-03-23T12:30:27;99421.34;;;23.38;34.82
41513;BME280;27244;59.940;30.280;2023-03-23T12:33:13;99436.69;;;23.46;34.71
41513;BME280;27244;59.940;30.280;2023-03-23T12:35:53;99437.16;;;23.44;34.73
41513;BME280;27244;59.940;30.280;2023-03-23T12:38:45;99439.03;;;23.47;34.65
41513;BME280;27244;59.940;30.280;2023-03-23T12:41:17;99442.91;;;23.41;34.87
41513;BME280;27244;59.940;30.280;2023-03-23T12:43:52;99431.22;;;23.42;34.62
41513;BME280;27244;59.940;30.280;2023-03-23T12:46:57;99444.50;;;23.51;34.45
41513;BME280;27244;59.940;30.280;2023-03-23T12:49:34;99443.09;;;23.46;34.53
41513;BME280;27244;59.940;30.280;2023-03-23T12:52:09;99438.09;;;23.41;34.48
41513;BME280;27244;59.940;30.280;2023-03-23T12:54:40;99447.94;;;23.46;34.71
41513;BME280;27244;59.940;30.280;2023-03-23T12:57:19;99451.84;;;23.48;34.44
41513;BME280;27244;59.940;30.280;2023-03-23T12:59:52;99456.22;;;23.49;34.39
41513;BME280;27244;59.940;30.280;2023-03-23T13:02:22;99449.34;;;23.50;34.39
41513;BME280;27244;59.940;30.280;2023-03-23T13:04:56;99445.25;;;23.51;34.26
41513;BME280;27244;59.940;30.280;2023-03-23T13:07:29;99443.72;;;23.50;34.34
41513;BME280;27244;59.940;30.280;2023-03-23T13:10:03;99447.31;;;23.51;34.20
41513;BME280;27244;59.940;30.280;2023-03-23T13:12:32;99442.94;;;23.50;34.32
41513;BME280;27244;59.940;30.280;2023-03-23T13:15:15;99439.63;;;23.51;34.21
41513;BME280;27244;59.940;30.280;2023-03-23T13:17:48;99448.22;;;23.48;34.23
41513;BME280;27244;59.940;30.280;2023-03-23T13:20:32;99449.97;;;23.55;34.22
41513;BME280;27244;59.940;30.280;2023-03-23T13:23:05;99440.13;;;23.50;34.20
41513;BME280;27244;59.940;30.280;2023-03-23T13:25:47;99449.97;;;23.55;34.23